Time,TemperatureF,DewpointF,PressureIn,WindDirection,WindDirectionDegrees,WindSpeedMPH,WindSpeedGustMPH,Humidity,HourlyPrecipIn,Conditions,Clouds,dailyrainin,SoftwareType,DateUTC
2013-09-14 00:00:00,60.0,-99.9,29.63,NNW,338,6.0,8.0,-999,-99.99,,,-99.99,,2013-09-14 04:00:00,
2013-09-14 00:54:00,60.0,-99.9,29.63,NNW,338,6.0,8.0,-999,-99.99,,,-99.99,,2013-09-14 04:54:00,
2013-09-14 01:00:00,60.0,-99.9,29.65,North,351,8.0,9.0,-999,-99.99,,,-99.99,,2013-09-14 05:00:00,
2013-09-14 01:53:00,60.0,-99.9,29.65,North,351,8.0,9.0,-999,-99.99,,,-99.99,,2013-09-14 05:53:00,
2013-09-14 02:00:00,61.0,-99.9,29.67,NNW,348,13.0,19.0,-999,-99.99,,,-99.99,,2013-09-14 06:00:00,
2013-09-14 02:52:00,61.0,-99.9,29.67,NNW,348,13.0,19.0,-999,-99.99,,,-99.99,,2013-09-14 06:52:00,
2013-09-14 03:00:00,59.0,-99.9,29.68,NNW,344,8.0,9.0,-999,-99.99,,,-99.99,,2013-09-14 07:00:00,
2013-09-14 03:52:00,59.0,-99.9,29.68,NNW,344,8.0,9.0,-999,-99.99,,,-99.99,,2013-09-14 07:52:00,
2013-09-14 04:52:00,59.0,-99.9,29.69,North,352,5.0,6.0,-999,-99.99,,,-99.99,,2013-09-14 08:52:00,
2013-09-14 05:54:00,58.0,-99.9,29.69,WNW,292,3.0,3.0,-999,-99.99,,,-99.99,,2013-09-14 09:54:00,
2013-09-14 06:00:00,58.0,-99.9,29.70,NNW,333,4.0,5.0,-999,-99.99,,,-99.99,,2013-09-14 10:00:00,
2013-09-14 06:53:00,58.0,-99.9,29.70,NNW,333,4.0,5.0,-999,-99.99,,,-99.99,,2013-09-14 10:53:00,
2013-09-14 07:00:00,59.0,-99.9,29.72,WNW,292,4.0,5.0,-999,-99.99,,,-99.99,,2013-09-14 11:00:00,
2013-09-14 07:52:00,59.0,-99.9,29.72,WNW,292,4.0,5.0,-999,-99.99,,,-99.99,,2013-09-14 11:52:00,
2013-09-14 08:53:00,58.0,-99.9,29.74,West,264,5.0,6.0,-999,-99.99,,,-99.99,,2013-09-14 12:53:00,
2013-09-14 09:52:00,59.0,-99.9,29.76,West,276,5.0,6.0,-999,-99.99,,,-99.99,,2013-09-14 13:52:00,
2013-09-14 10:10:00,61.0,-99.9,29.77,West,274,4.0,5.0,-999,-99.99,,,-99.99,,2013-09-14 14:10:00,
2013-09-14 11:00:00,63.0,-99.9,29.78,SSW,199,6.0,6.0,-999,-99.99,,,-99.99,,2013-09-14 15:00:00,
2013-09-14 11:53:00,63.0,-99.9,29.78,SSW,199,6.0,6.0,-999,-99.99,,,-99.99,,2013-09-14 15:53:00,
2013-09-14 12:54:00,61.0,-99.9,29.79,South,188,7.0,9.0,-999,-99.99,,,-99.99,,2013-09-14 16:54:00,
2013-09-14 13:30:00,62.0,-99.9,29.78,South,180,7.0,9.0,-999,-99.99,,,-99.99,,2013-09-14 17:30:00,
2013-09-14 14:12:00,62.0,-99.9,29.78,South,180,7.0,9.0,-999,-99.99,,,-99.99,,2013-09-14 18:12:00,
2013-09-14 14:22:00,62.0,-99.9,29.78,South,180,7.0,9.0,-999,-99.99,,,-99.99,,2013-09-14 18:22:00,
2013-09-14 14:50:00,62.0,-99.9,29.78,SW,224,15.0,19.0,-999,-99.99,,,-99.99,,2013-09-14 18:50:00,
2013-09-14 15:30:00,62.0,-99.9,29.78,SW,226,13.0,16.0,-999,-99.99,,,-99.99,,2013-09-14 19:30:00,
2013-09-14 16:12:00,62.0,-99.9,29.78,SW,226,13.0,16.0,-999,-99.99,,,-99.99,,2013-09-14 20:12:00,
2013-09-14 16:22:00,62.0,-99.9,29.78,SW,226,13.0,16.0,-999,-99.99,,,-99.99,,2013-09-14 20:22:00,
2013-09-14 16:52:00,62.0,-99.9,29.80,SW,218,13.0,16.0,-999,-99.99,,,-99.99,,2013-09-14 20:52:00,
2013-09-14 19:30:00,61.0,-99.9,29.87,West,267,4.0,4.0,-999,-99.99,,,-99.99,,2013-09-14 23:30:00,
2013-09-14 19:53:00,62.0,-99.9,29.86,WSW,251,4.0,5.0,-999,-99.99,,,-99.99,,2013-09-14 23:53:00,
2013-09-14 20:12:00,61.0,-99.9,29.87,West,267,4.0,4.0,-999,-99.99,,,-99.99,,2013-09-15 00:12:00,
2013-09-14 20:22:00,61.0,-99.9,29.87,West,267,4.0,4.0,-999,-99.99,,,-99.99,,2013-09-15 00:22:00,
2013-09-14 20:53:00,60.0,-99.9,29.89,West,263,3.0,4.0,-999,-99.99,,,-99.99,,2013-09-15 00:53:00,
2013-09-14 21:00:00,61.0,-99.9,29.91,NW,309,8.0,10.0,-999,-99.99,,,-99.99,,2013-09-15 01:00:00,
2013-09-14 21:52:00,61.0,-99.9,29.91,NW,309,8.0,10.0,-999,-99.99,,,-99.99,,2013-09-15 01:52:00,
2013-09-14 22:10:00,60.0,-99.9,29.93,NW,314,11.0,13.0,-999,-99.99,,,-99.99,,2013-09-15 02:10:00,
2013-09-14 23:00:00,-999.0,-99.9,29.94,NNW,331,12.0,14.0,-999,-99.99,,,-99.99,,2013-09-15 03:00:00,
2013-09-14 23:55:00,59.0,-99.9,29.94,NNW,331,12.0,14.0,-999,-99.99,,,-99.99,,2013-09-15 03:55:00,